Airfield :







YOU CAN JOIN US ON...

 
LOGIN :

Register | Disclaimer

   EN    FR    IT 

 









Legend :    VFR   Marginal VFR   IFR   Intensive IFR   Very Intensive IFR
Visi :
Ceiling :
>= 8 km
>= 3000ft
5 to 8 km
1000 to 3000 ft
1500m to 5 km
500 to 1000 ft
800 to 1500m
200 to 500 ft
< 800m
< 200 ft
Symbols :   Thunderstorms  Fog  Heavy snow  Heavy precipitations  Wind > 20 kt






- Airport Elevation : 522 ft
- IATA code : YBG


CYBG - CFB Bagotville

CURRENT METAR :
  • 240300Z 12003KT 25SM BKN085 05/05 A2982 RMK AC6 SLP104

EXPIRED METARs :
  • 240200Z 00000KT 25SM MIFG BKN085 05/05 A2982 RMK AC6 SLP103
  • 240100Z 13003KT 25SM BKN085 06/05 A2981 RMK AC7 SLP102

TAF TAF CYBG
Valid from the 24 at 00:00 until the 25 at 00:00 UTC


232330Z 2400/2424 11005KT P6SM FEW015 SCT050
TEMPO 2400/2412 FEW015 BKN050
BECMG 2401/2403 26005KT
FM241200 27010KT P6SM BKN025 OVC050
BECMG 2414/2416 27010G20KT
FM241800 27010G20KT P6SM -SHRA BKN025 OVC070 RMK NXT FCST BY 240600Z



MET'MAP, your aeronautical weather chart ! - Copyright ORBIFLY December 2007 - Disclaimer

ORBIFLY MET'MAP TEAM :

Programming & Development : Alexandra Zaïnal
Concept & Development : Baudouin d'Aumeries
Co-Development & Prog : Marc-Olivier Méhu
Technical & hardware support : Manuel Goepfert

Contact : metmap@orbifly.com




SOURCES & CREDITS :

   NOAA